sensor_id;sensor_type;location;lat;lon;timestamp;P1;durP1;ratioP1;P2;durP2;ratioP2
35917;SDS011;22011;59.912;30.300;2023-02-01T00:00:01;4.00;;;2.08;;
35917;SDS011;22011;59.912;30.300;2023-02-01T00:02:31;5.37;;;2.17;;
35917;SDS011;22011;59.912;30.300;2023-02-01T00:04:58;4.82;;;2.28;;
35917;SDS011;22011;59.912;30.300;2023-02-01T00:07:26;7.72;;;2.45;;
35917;SDS011;22011;59.912;30.300;2023-02-01T00:09:55;6.57;;;2.60;;
35917;SDS011;22011;59.912;30.300;2023-02-01T00:12:22;5.22;;;2.22;;
35917;SDS011;22011;59.912;30.300;2023-02-01T00:14:49;8.45;;;3.05;;
35917;SDS011;22011;59.912;30.300;2023-02-01T00:17:17;6.05;;;2.70;;
35917;SDS011;22011;59.912;30.300;2023-02-01T00:19:44;5.97;;;2.85;;
35917;SDS011;22011;59.912;30.300;2023-02-01T00:22:12;6.00;;;3.35;;
35917;SDS011;22011;59.912;30.300;2023-02-01T00:24:39;10.88;;;3.45;;
35917;SDS011;22011;59.912;30.300;2023-02-01T00:27:08;7.70;;;3.30;;
35917;SDS011;22011;59.912;30.300;2023-02-01T00:29:36;7.93;;;3.47;;
35917;SDS011;22011;59.912;30.300;2023-02-01T00:32:03;6.75;;;3.50;;
35917;SDS011;22011;59.912;30.300;2023-02-01T00:34:31;7.68;;;2.95;;
35917;SDS011;22011;59.912;30.300;2023-02-01T00:36:58;8.00;;;2.65;;
35917;SDS011;22011;59.912;30.300;2023-02-01T00:39:26;6.78;;;2.90;;
35917;SDS011;22011;59.912;30.300;2023-02-01T00:41:53;7.40;;;2.90;;
35917;SDS011;22011;59.912;30.300;2023-02-01T00:44:22;7.28;;;3.10;;
35917;SDS011;22011;59.912;30.300;2023-02-01T00:46:50;6.32;;;2.78;;
35917;SDS011;22011;59.912;30.300;2023-02-01T00:49:17;8.35;;;2.53;;
35917;SDS011;22011;59.912;30.300;2023-02-01T00:51:45;7.28;;;2.63;;
35917;SDS011;22011;59.912;30.300;2023-02-01T00:54:12;6.40;;;2.58;;
35917;SDS011;22011;59.912;30.300;2023-02-01T00:56:39;4.78;;;2.35;;
35917;SDS011;22011;59.912;30.300;2023-02-01T00:59:07;10.18;;;2.95;;
35917;SDS011;22011;59.912;30.300;2023-02-01T01:01:38;5.10;;;2.70;;
35917;SDS011;22011;59.912;30.300;2023-02-01T01:04:06;6.57;;;2.63;;
35917;SDS011;22011;59.912;30.300;2023-02-01T01:06:34;8.63;;;2.67;;
35917;SDS011;22011;59.912;30.300;2023-02-01T01:09:03;5.95;;;2.42;;
35917;SDS011;22011;59.912;30.300;2023-02-01T01:11:33;6.13;;;2.30;;
35917;SDS011;22011;59.912;30.300;2023-02-01T01:14:03;6.10;;;3.07;;
35917;SDS011;22011;59.912;30.300;2023-02-01T01:16:32;4.68;;;1.80;;
35917;SDS011;22011;59.912;30.300;2023-02-01T01:19:01;5.88;;;1.77;;
35917;SDS011;22011;59.912;30.300;2023-02-01T01:21:30;3.63;;;1.20;;
35917;SDS011;22011;59.912;30.300;2023-02-01T01:23:58;3.92;;;1.58;;
35917;SDS011;22011;59.912;30.300;2023-02-01T01:26:26;5.60;;;1.90;;
35917;SDS011;22011;59.912;30.300;2023-02-01T01:28:56;6.40;;;1.35;;
35917;SDS011;22011;59.912;30.300;2023-02-01T01:31:25;6.18;;;1.40;;
35917;SDS011;22011;59.912;30.300;2023-02-01T01:33:54;5.68;;;1.48;;
35917;SDS011;22011;59.912;30.300;2023-02-01T01:36:25;6.60;;;1.83;;
35917;SDS011;22011;59.912;30.300;2023-02-01T01:38:53;5.50;;;1.73;;
35917;SDS011;22011;59.912;30.300;2023-02-01T01:41:22;4.35;;;1.90;;
35917;SDS011;22011;59.912;30.300;2023-02-01T01:43:54;4.45;;;1.63;;
35917;SDS011;22011;59.912;30.300;2023-02-01T01:46:26;6.15;;;2.05;;
35917;SDS011;22011;59.912;30.300;2023-02-01T01:48:57;4.03;;;1.40;;
35917;SDS011;22011;59.912;30.300;2023-02-01T01:51:34;6.18;;;1.58;;
35917;SDS011;22011;59.912;30.300;2023-02-01T01:54:06;6.20;;;1.65;;
35917;SDS011;22011;59.912;30.300;2023-02-01T01:56:38;6.53;;;2.10;;
35917;SDS011;22011;59.912;30.300;2023-02-01T01:59:07;5.55;;;2.13;;
35917;SDS011;22011;59.912;30.300;2023-02-01T02:01:36;3.70;;;1.80;;
35917;SDS011;22011;59.912;30.300;2023-02-01T02:04:03;2.80;;;1.60;;
35917;SDS011;22011;59.912;30.300;2023-02-01T02:06:36;3.45;;;1.55;;
35917;SDS011;22011;59.912;30.300;2023-02-01T02:09:07;3.47;;;1.48;;
35917;SDS011;22011;59.912;30.300;2023-02-01T02:11:35;4.82;;;1.70;;
35917;SDS011;22011;59.912;30.300;2023-02-01T02:14:02;3.10;;;1.40;;
35917;SDS011;22011;59.912;30.300;2023-02-01T02:16:47;2.85;;;1.45;;
35917;SDS011;22011;59.912;30.300;2023-02-01T02:22:52;6.47;;;1.67;;
35917;SDS011;22011;59.912;30.300;2023-02-01T02:31:55;5.72;;;1.67;;
35917;SDS011;22011;59.912;30.300;2023-02-01T02:34:35;3.63;;;1.35;;
35917;SDS011;22011;59.912;30.300;2023-02-01T02:37:11;7.43;;;2.13;;
35917;SDS011;22011;59.912;30.300;2023-02-01T02:39:48;5.05;;;1.50;;
35917;SDS011;22011;59.912;30.300;2023-02-01T02:42:24;4.40;;;1.67;;
35917;SDS011;22011;59.912;30.300;2023-02-01T02:45:17;5.47;;;1.23;;
35917;SDS011;22011;59.912;30.300;2023-02-01T02:48:08;5.85;;;1.48;;
35917;SDS011;22011;59.912;30.300;2023-02-01T02:50:42;7.55;;;2.05;;
35917;SDS011;22011;59.912;30.300;2023-02-01T02:53:34;2.45;;;1.60;;
35917;SDS011;22011;59.912;30.300;2023-02-01T02:56:24;8.15;;;1.77;;
35917;SDS011;22011;59.912;30.300;2023-02-01T02:59:12;4.20;;;1.60;;
35917;SDS011;22011;59.912;30.300;2023-02-01T03:01:58;3.90;;;1.20;;
35917;SDS011;22011;59.912;30.300;2023-02-01T03:04:43;5.13;;;1.67;;
35917;SDS011;22011;59.912;30.300;2023-02-01T03:07:13;6.25;;;1.33;;
35917;SDS011;22011;59.912;30.300;2023-02-01T03:10:02;3.70;;;1.30;;
35917;SDS011;22011;59.912;30.300;2023-02-01T03:12:36;5.70;;;2.05;;
35917;SDS011;22011;59.912;30.300;2023-02-01T03:15:23;4.82;;;1.67;;
35917;SDS011;22011;59.912;30.300;2023-02-01T03:17:57;3.50;;;1.42;;
35917;SDS011;22011;59.912;30.300;2023-02-01T03:20:28;2.80;;;1.40;;
35917;SDS011;22011;59.912;30.300;2023-02-01T03:22:59;6.55;;;1.38;;
35917;SDS011;22011;59.912;30.300;2023-02-01T03:25:28;4.22;;;1.20;;
35917;SDS011;22011;59.912;30.300;2023-02-01T03:28:00;4.90;;;1.02;;
35917;SDS011;22011;59.912;30.300;2023-02-01T03:30:31;5.30;;;1.50;;
35917;SDS011;22011;59.912;30.300;2023-02-01T03:33:04;8.43;;;1.63;;
35917;SDS011;22011;59.912;30.300;2023-02-01T03:35:40;4.43;;;1.10;;
35917;SDS011;22011;59.912;30.300;2023-02-01T03:38:18;9.27;;;1.75;;
35917;SDS011;22011;59.912;30.300;2023-02-01T03:40:51;6.65;;;2.05;;
35917;SDS011;22011;59.912;30.300;2023-02-01T03:43:24;7.72;;;1.92;;
35917;SDS011;22011;59.912;30.300;2023-02-01T03:45:56;5.85;;;1.95;;
35917;SDS011;22011;59.912;30.300;2023-02-01T03:48:28;5.68;;;1.98;;
35917;SDS011;22011;59.912;30.300;2023-02-01T03:51:00;5.10;;;2.10;;
35917;SDS011;22011;59.912;30.300;2023-02-01T03:53:32;5.35;;;2.00;;
35917;SDS011;22011;59.912;30.300;2023-02-01T03:56:05;7.30;;;2.20;;
35917;SDS011;22011;59.912;30.300;2023-02-01T03:58:34;9.43;;;2.45;;
35917;SDS011;22011;59.912;30.300;2023-02-01T04:01:01;6.22;;;1.75;;
35917;SDS011;22011;59.912;30.300;2023-02-01T04:03:31;7.07;;;1.60;;
35917;SDS011;22011;59.912;30.300;2023-02-01T04:05:59;5.47;;;2.00;;
35917;SDS011;22011;59.912;30.300;2023-02-01T04:08:28;7.45;;;1.80;;
35917;SDS011;22011;59.912;30.300;2023-02-01T04:10:57;3.17;;;1.52;;
35917;SDS011;22011;59.912;30.300;2023-02-01T04:13:24;4.80;;;1.35;;
35917;SDS011;22011;59.912;30.300;2023-02-01T04:15:52;2.90;;;1.42;;
35917;SDS011;22011;59.912;30.300;2023-02-01T04:18:20;5.68;;;1.83;;
35917;SDS011;22011;59.912;30.300;2023-02-01T04:20:47;6.82;;;1.80;;
35917;SDS011;22011;59.912;30.300;2023-02-01T04:23:14;3.28;;;1.52;;
35917;SDS011;22011;59.912;30.300;2023-02-01T04:25:42;6.35;;;1.50;;
35917;SDS011;22011;59.912;30.300;2023-02-01T04:28:11;5.30;;;1.98;;
35917;SDS011;22011;59.912;30.300;2023-02-01T04:30:39;5.20;;;1.65;;
35917;SDS011;22011;59.912;30.300;2023-02-01T04:33:06;5.97;;;1.85;;
35917;SDS011;22011;59.912;30.300;2023-02-01T04:35:34;5.45;;;1.67;;
35917;SDS011;22011;59.912;30.300;2023-02-01T04:38:01;6.95;;;1.70;;
35917;SDS011;22011;59.912;30.300;2023-02-01T04:40:29;12.20;;;1.73;;
35917;SDS011;22011;59.912;30.300;2023-02-01T04:42:56;5.28;;;1.77;;
35917;SDS011;22011;59.912;30.300;2023-02-01T04:45:25;9.13;;;3.28;;
35917;SDS011;22011;59.912;30.300;2023-02-01T04:47:52;10.82;;;2.92;;
35917;SDS011;22011;59.912;30.300;2023-02-01T04:50:20;12.88;;;3.47;;
35917;SDS011;22011;59.912;30.300;2023-02-01T04:52:49;8.65;;;3.15;;
35917;SDS011;22011;59.912;30.300;2023-02-01T04:55:17;9.68;;;2.58;;
35917;SDS011;22011;59.912;30.300;2023-02-01T04:57:44;8.73;;;1.90;;
35917;SDS011;22011;59.912;30.300;2023-02-01T05:00:12;5.10;;;2.15;;
35917;SDS011;22011;59.912;30.300;2023-02-01T05:02:41;2.88;;;1.50;;
35917;SDS011;22011;59.912;30.300;2023-02-01T05:05:09;5.00;;;2.05;;
35917;SDS011;22011;59.912;30.300;2023-02-01T05:07:36;6.38;;;1.80;;
35917;SDS011;22011;59.912;30.300;2023-02-01T05:10:04;6.70;;;1.52;;
35917;SDS011;22011;59.912;30.300;2023-02-01T05:12:32;5.60;;;2.00;;
35917;SDS011;22011;59.912;30.300;2023-02-01T05:15:17;3.53;;;1.38;;
35917;SDS011;22011;59.912;30.300;2023-02-01T05:17:46;5.07;;;1.65;;
35917;SDS011;22011;59.912;30.300;2023-02-01T05:20:13;4.07;;;1.25;;
35917;SDS011;22011;59.912;30.300;2023-02-01T05:22:41;7.25;;;1.75;;
35917;SDS011;22011;59.912;30.300;2023-02-01T05:25:09;2.83;;;1.40;;
35917;SDS011;22011;59.912;30.300;2023-02-01T05:27:36;7.65;;;1.95;;
35917;SDS011;22011;59.912;30.300;2023-02-01T05:30:04;3.13;;;1.27;;
35917;SDS011;22011;59.912;30.300;2023-02-01T05:32:33;4.95;;;1.92;;
35917;SDS011;22011;59.912;30.300;2023-02-01T05:35:02;4.55;;;1.90;;
35917;SDS011;22011;59.912;30.300;2023-02-01T05:37:29;8.55;;;2.15;;
35917;SDS011;22011;59.912;30.300;2023-02-01T05:39:57;5.60;;;1.90;;
35917;SDS011;22011;59.912;30.300;2023-02-01T05:42:24;9.70;;;2.80;;
35917;SDS011;22011;59.912;30.300;2023-02-01T05:44:52;7.18;;;1.80;;
35917;SDS011;22011;59.912;30.300;2023-02-01T05:47:19;9.15;;;1.75;;
35917;SDS011;22011;59.912;30.300;2023-02-01T05:49:47;5.10;;;1.80;;
35917;SDS011;22011;59.912;30.300;2023-02-01T05:52:16;8.40;;;1.95;;
35917;SDS011;22011;59.912;30.300;2023-02-01T05:57:12;6.18;;;2.47;;
35917;SDS011;22011;59.912;30.300;2023-02-01T05:59:40;7.18;;;2.55;;
35917;SDS011;22011;59.912;30.300;2023-02-01T06:02:10;6.55;;;2.65;;
35917;SDS011;22011;59.912;30.300;2023-02-01T06:04:38;10.75;;;3.28;;
35917;SDS011;22011;59.912;30.300;2023-02-01T06:07:06;8.90;;;2.67;;
35917;SDS011;22011;59.912;30.300;2023-02-01T06:09:36;8.13;;;3.28;;
35917;SDS011;22011;59.912;30.300;2023-02-01T06:12:04;11.43;;;3.17;;
35917;SDS011;22011;59.912;30.300;2023-02-01T06:14:32;9.65;;;3.47;;
35917;SDS011;22011;59.912;30.300;2023-02-01T06:16:59;7.32;;;3.10;;
35917;SDS011;22011;59.912;30.300;2023-02-01T06:19:27;9.43;;;2.53;;
35917;SDS011;22011;59.912;30.300;2023-02-01T06:21:54;3.55;;;1.98;;
35917;SDS011;22011;59.912;30.300;2023-02-01T06:24:22;6.07;;;1.65;;
35917;SDS011;22011;59.912;30.300;2023-02-01T06:26:51;4.15;;;1.63;;
35917;SDS011;22011;59.912;30.300;2023-02-01T06:29:18;6.28;;;2.08;;
35917;SDS011;22011;59.912;30.300;2023-02-01T06:31:46;8.35;;;1.73;;
35917;SDS011;22011;59.912;30.300;2023-02-01T06:34:13;11.27;;;2.97;;
35917;SDS011;22011;59.912;30.300;2023-02-01T06:36:41;13.10;;;3.60;;
35917;SDS011;22011;59.912;30.300;2023-02-01T06:39:08;16.60;;;2.47;;
35917;SDS011;22011;59.912;30.300;2023-02-01T06:41:36;7.43;;;1.60;;
35917;SDS011;22011;59.912;30.300;2023-02-01T06:44:05;4.35;;;1.20;;
35917;SDS011;22011;59.912;30.300;2023-02-01T06:46:32;7.15;;;1.23;;
35917;SDS011;22011;59.912;30.300;2023-02-01T06:49:00;9.43;;;1.52;;
35917;SDS011;22011;59.912;30.300;2023-02-01T06:51:27;8.43;;;1.83;;
35917;SDS011;22011;59.912;30.300;2023-02-01T06:53:55;15.07;;;2.25;;
35917;SDS011;22011;59.912;30.300;2023-02-01T06:56:22;16.45;;;2.42;;
35917;SDS011;22011;59.912;30.300;2023-02-01T06:58:50;9.02;;;2.60;;
35917;SDS011;22011;59.912;30.300;2023-02-01T07:01:19;7.32;;;2.78;;
35917;SDS011;22011;59.912;30.300;2023-02-01T07:03:47;7.22;;;1.70;;
35917;SDS011;22011;59.912;30.300;2023-02-01T07:06:16;4.43;;;1.63;;
35917;SDS011;22011;59.912;30.300;2023-02-01T07:08:45;7.63;;;1.85;;
35917;SDS011;22011;59.912;30.300;2023-02-01T07:11:12;7.60;;;1.80;;
35917;SDS011;22011;59.912;30.300;2023-02-01T07:13:41;50.35;;;5.57;;
35917;SDS011;22011;59.912;30.300;2023-02-01T07:16:10;9.38;;;2.20;;
35917;SDS011;22011;59.912;30.300;2023-02-01T07:18:40;7.57;;;2.20;;
35917;SDS011;22011;59.912;30.300;2023-02-01T07:21:08;6.22;;;3.25;;
35917;SDS011;22011;59.912;30.300;2023-02-01T07:23:36;16.25;;;2.50;;
35917;SDS011;22011;59.912;30.300;2023-02-01T07:26:04;18.95;;;3.28;;
35917;SDS011;22011;59.912;30.300;2023-02-01T07:28:34;13.88;;;3.47;;
35917;SDS011;22011;59.912;30.300;2023-02-01T07:31:03;8.50;;;2.30;;
35917;SDS011;22011;59.912;30.300;2023-02-01T07:33:31;6.80;;;1.98;;
35917;SDS011;22011;59.912;30.300;2023-02-01T07:36:01;11.40;;;2.50;;
35917;SDS011;22011;59.912;30.300;2023-02-01T07:38:29;24.00;;;2.92;;
35917;SDS011;22011;59.912;30.300;2023-02-01T07:40:57;6.18;;;1.90;;
35917;SDS011;22011;59.912;30.300;2023-02-01T07:43:26;6.40;;;2.03;;
35917;SDS011;22011;59.912;30.300;2023-02-01T07:45:54;13.20;;;2.83;;
35917;SDS011;22011;59.912;30.300;2023-02-01T07:48:22;7.50;;;2.20;;
35917;SDS011;22011;59.912;30.300;2023-02-01T07:50:56;19.13;;;2.80;;
35917;SDS011;22011;59.912;30.300;2023-02-01T07:53:26;8.80;;;2.80;;
35917;SDS011;22011;59.912;30.300;2023-02-01T07:55:56;8.48;;;2.85;;
35917;SDS011;22011;59.912;30.300;2023-02-01T07:58:24;14.32;;;2.95;;
35917;SDS011;22011;59.912;30.300;2023-02-01T08:00:51;8.27;;;2.20;;
35917;SDS011;22011;59.912;30.300;2023-02-01T08:03:36;7.85;;;1.95;;
35917;SDS011;22011;59.912;30.300;2023-02-01T08:06:04;10.80;;;2.50;;
35917;SDS011;22011;59.912;30.300;2023-02-01T08:08:33;12.52;;;2.05;;
35917;SDS011;22011;59.912;30.300;2023-02-01T08:11:01;11.43;;;2.60;;
35917;SDS011;22011;59.912;30.300;2023-02-01T08:13:30;20.50;;;2.85;;
35917;SDS011;22011;59.912;30.300;2023-02-01T08:16:00;19.27;;;3.38;;
35917;SDS011;22011;59.912;30.300;2023-02-01T08:18:28;11.27;;;2.78;;
35917;SDS011;22011;59.912;30.300;2023-02-01T08:20:56;13.43;;;3.17;;
35917;SDS011;22011;59.912;30.300;2023-02-01T08:23:24;6.75;;;2.13;;
35917;SDS011;22011;59.912;30.300;2023-02-01T08:25:53;8.70;;;3.15;;
35917;SDS011;22011;59.912;30.300;2023-02-01T08:28:20;10.70;;;3.00;;
35917;SDS011;22011;59.912;30.300;2023-02-01T08:30:48;14.48;;;4.53;;
35917;SDS011;22011;59.912;30.300;2023-02-01T08:33:15;6.63;;;2.88;;
35917;SDS011;22011;59.912;30.300;2023-02-01T08:35:43;10.98;;;2.80;;
35917;SDS011;22011;59.912;30.300;2023-02-01T08:38:10;9.98;;;2.65;;
35917;SDS011;22011;59.912;30.300;2023-02-01T08:40:38;10.75;;;3.00;;
35917;SDS011;22011;59.912;30.300;2023-02-01T08:43:08;10.85;;;3.58;;
35917;SDS011;22011;59.912;30.300;2023-02-01T08:45:36;15.05;;;4.05;;
35917;SDS011;22011;59.912;30.300;2023-02-01T08:48:03;11.25;;;4.07;;
35917;SDS011;22011;59.912;30.300;2023-02-01T08:50:31;11.55;;;4.38;;
35917;SDS011;22011;59.912;30.300;2023-02-01T08:52:59;11.90;;;2.85;;
35917;SDS011;22011;59.912;30.300;2023-02-01T08:55:26;7.35;;;2.90;;
35917;SDS011;22011;59.912;30.300;2023-02-01T08:57:54;14.45;;;3.28;;
35917;SDS011;22011;59.912;30.300;2023-02-01T09:00:23;9.68;;;2.95;;
35917;SDS011;22011;59.912;30.300;2023-02-01T09:02:51;14.40;;;4.22;;
35917;SDS011;22011;59.912;30.300;2023-02-01T09:05:18;8.18;;;3.08;;
35917;SDS011;22011;59.912;30.300;2023-02-01T09:07:48;12.80;;;3.17;;
35917;SDS011;22011;59.912;30.300;2023-02-01T09:10:15;11.63;;;3.28;;
35917;SDS011;22011;59.912;30.300;2023-02-01T09:12:43;5.13;;;2.92;;
35917;SDS011;22011;59.912;30.300;2023-02-01T09:15:11;6.22;;;3.08;;
35917;SDS011;22011;59.912;30.300;2023-02-01T09:17:40;6.95;;;2.78;;
35917;SDS011;22011;59.912;30.300;2023-02-01T09:22:37;7.43;;;3.30;;
35917;SDS011;22011;59.912;30.300;2023-02-01T09:25:04;10.55;;;4.63;;
35917;SDS011;22011;59.912;30.300;2023-02-01T09:27:33;7.18;;;3.85;;
35917;SDS011;22011;59.912;30.300;2023-02-01T09:30:00;8.85;;;4.18;;
35917;SDS011;22011;59.912;30.300;2023-02-01T09:32:28;15.88;;;5.70;;
35917;SDS011;22011;59.912;30.300;2023-02-01T09:34:57;8.85;;;5.13;;
35917;SDS011;22011;59.912;30.300;2023-02-01T09:37:24;11.15;;;5.45;;
35917;SDS011;22011;59.912;30.300;2023-02-01T09:39:52;14.55;;;4.68;;
35917;SDS011;22011;59.912;30.300;2023-02-01T09:42:23;14.88;;;4.65;;
35917;SDS011;22011;59.912;30.300;2023-02-01T09:45:14;9.38;;;4.03;;
35917;SDS011;22011;59.912;30.300;2023-02-01T09:47:50;14.80;;;4.00;;
35917;SDS011;22011;59.912;30.300;2023-02-01T09:50:24;7.05;;;3.20;;
35917;SDS011;22011;59.912;30.300;2023-02-01T09:52:59;11.80;;;4.22;;
35917;SDS011;22011;59.912;30.300;2023-02-01T09:55:31;5.10;;;3.30;;
35917;SDS011;22011;59.912;30.300;2023-02-01T09:58:04;6.35;;;3.10;;
35917;SDS011;22011;59.912;30.300;2023-02-01T10:00:36;7.90;;;2.50;;
35917;SDS011;22011;59.912;30.300;2023-02-01T10:03:07;5.25;;;1.77;;
35917;SDS011;22011;59.912;30.300;2023-02-01T10:05:43;7.30;;;1.42;;
35917;SDS011;22011;59.912;30.300;2023-02-01T10:08:25;4.65;;;1.40;;
35917;SDS011;22011;59.912;30.300;2023-02-01T10:11:03;5.95;;;1.92;;
35917;SDS011;22011;59.912;30.300;2023-02-01T10:13:44;6.22;;;2.60;;
35917;SDS011;22011;59.912;30.300;2023-02-01T10:16:25;7.82;;;2.08;;
35917;SDS011;22011;59.912;30.300;2023-02-01T10:19:05;5.88;;;2.63;;
35917;SDS011;22011;59.912;30.300;2023-02-01T10:21:50;8.02;;;3.25;;
35917;SDS011;22011;59.912;30.300;2023-02-01T10:24:29;8.63;;;3.30;;
35917;SDS011;22011;59.912;30.300;2023-02-01T10:27:11;6.00;;;2.83;;
35917;SDS011;22011;59.912;30.300;2023-02-01T10:29:41;5.43;;;2.55;;
35917;SDS011;22011;59.912;30.300;2023-02-01T10:34:40;8.38;;;3.15;;
35917;SDS011;22011;59.912;30.300;2023-02-01T10:37:15;14.05;;;5.78;;
35917;SDS011;22011;59.912;30.300;2023-02-01T10:39:52;6.22;;;3.83;;
35917;SDS011;22011;59.912;30.300;2023-02-01T10:42:23;16.38;;;3.42;;
35917;SDS011;22011;59.912;30.300;2023-02-01T10:44:53;7.00;;;3.35;;
35917;SDS011;22011;59.912;30.300;2023-02-01T10:47:23;8.55;;;3.70;;
35917;SDS011;22011;59.912;30.300;2023-02-01T10:49:53;7.35;;;3.13;;
35917;SDS011;22011;59.912;30.300;2023-02-01T10:52:31;9.00;;;2.47;;
35917;SDS011;22011;59.912;30.300;2023-02-01T10:57:56;2.72;;;1.55;;
35917;SDS011;22011;59.912;30.300;2023-02-01T11:00:26;7.30;;;2.63;;
35917;SDS011;22011;59.912;30.300;2023-02-01T11:02:54;4.05;;;1.95;;
35917;SDS011;22011;59.912;30.300;2023-02-01T11:05:22;15.48;;;3.17;;
35917;SDS011;22011;59.912;30.300;2023-02-01T11:07:54;5.03;;;2.88;;
35917;SDS011;22011;59.912;30.300;2023-02-01T11:10:35;13.05;;;2.92;;
35917;SDS011;22011;59.912;30.300;2023-02-01T11:13:11;17.30;;;2.75;;
35917;SDS011;22011;59.912;30.300;2023-02-01T11:15:42;8.00;;;3.40;;
35917;SDS011;22011;59.912;30.300;2023-02-01T11:18:15;6.80;;;2.95;;
35917;SDS011;22011;59.912;30.300;2023-02-01T11:20:44;18.30;;;3.25;;
35917;SDS011;22011;59.912;30.300;2023-02-01T11:23:19;12.32;;;3.78;;
35917;SDS011;22011;59.912;30.300;2023-02-01T11:25:50;14.77;;;3.85;;
35917;SDS011;22011;59.912;30.300;2023-02-01T11:28:20;7.63;;;3.25;;
35917;SDS011;22011;59.912;30.300;2023-02-01T11:30:52;22.17;;;4.22;;
35917;SDS011;22011;59.912;30.300;2023-02-01T11:33:23;11.57;;;3.45;;
35917;SDS011;22011;59.912;30.300;2023-02-01T11:35:55;18.58;;;5.05;;
35917;SDS011;22011;59.912;30.300;2023-02-01T11:38:28;19.30;;;4.60;;
35917;SDS011;22011;59.912;30.300;2023-02-01T11:41:10;11.55;;;4.55;;
35917;SDS011;22011;59.912;30.300;2023-02-01T11:43:49;11.20;;;4.35;;
35917;SDS011;22011;59.912;30.300;2023-02-01T11:46:19;15.77;;;3.97;;
35917;SDS011;22011;59.912;30.300;2023-02-01T11:48:52;17.83;;;3.70;;
35917;SDS011;22011;59.912;30.300;2023-02-01T11:51:25;13.40;;;4.25;;
35917;SDS011;22011;59.912;30.300;2023-02-01T11:54:07;14.23;;;3.40;;
35917;SDS011;22011;59.912;30.300;2023-02-01T11:56:47;25.85;;;5.55;;
35917;SDS011;22011;59.912;30.300;2023-02-01T11:59:38;7.75;;;3.00;;
35917;SDS011;22011;59.912;30.300;2023-02-01T12:02:29;11.80;;;3.33;;
35917;SDS011;22011;59.912;30.300;2023-02-01T12:05:14;5.05;;;2.15;;
35917;SDS011;22011;59.912;30.300;2023-02-01T12:07:57;14.05;;;2.85;;
35917;SDS011;22011;59.912;30.300;2023-02-01T12:10:47;6.65;;;1.85;;
35917;SDS011;22011;59.912;30.300;2023-02-01T12:13:28;5.90;;;1.70;;
35917;SDS011;22011;59.912;30.300;2023-02-01T12:16:11;5.03;;;1.38;;
35917;SDS011;22011;59.912;30.300;2023-02-01T12:22:03;5.68;;;2.15;;
35917;SDS011;22011;59.912;30.300;2023-02-01T12:24:55;5.90;;;2.58;;
35917;SDS011;22011;59.912;30.300;2023-02-01T12:27:45;10.38;;;2.22;;
35917;SDS011;22011;59.912;30.300;2023-02-01T12:30:33;8.70;;;2.17;;
35917;SDS011;22011;59.912;30.300;2023-02-01T12:33:20;5.72;;;3.05;;
35917;SDS011;22011;59.912;30.300;2023-02-01T12:36:13;7.63;;;2.50;;
35917;SDS011;22011;59.912;30.300;2023-02-01T12:38:44;6.18;;;3.03;;
35917;SDS011;22011;59.912;30.300;2023-02-01T12:41:32;5.00;;;3.00;;
35917;SDS011;22011;59.912;30.300;2023-02-01T12:44:16;15.55;;;2.20;;
35917;SDS011;22011;59.912;30.300;2023-02-01T12:46:54;9.05;;;3.10;;
35917;SDS011;22011;59.912;30.300;2023-02-01T12:49:28;12.52;;;3.28;;
35917;SDS011;22011;59.912;30.300;2023-02-01T12:52:06;7.22;;;3.15;;
35917;SDS011;22011;59.912;30.300;2023-02-01T12:54:40;8.20;;;3.05;;
35917;SDS011;22011;59.912;30.300;2023-02-01T12:57:15;8.73;;;3.22;;
35917;SDS011;22011;59.912;30.300;2023-02-01T12:59:49;11.02;;;2.90;;
35917;SDS011;22011;59.912;30.300;2023-02-01T13:02:22;7.10;;;2.75;;
35917;SDS011;22011;59.912;30.300;2023-02-01T13:04:57;12.77;;;2.72;;
35917;SDS011;22011;59.912;30.300;2023-02-01T13:07:30;6.82;;;2.22;;
35917;SDS011;22011;59.912;30.300;2023-02-01T13:10:03;6.38;;;2.22;;
35917;SDS011;22011;59.912;30.300;2023-02-01T13:12:40;7.10;;;1.90;;
35917;SDS011;22011;59.912;30.300;2023-02-01T13:15:14;4.80;;;1.90;;
35917;SDS011;22011;59.912;30.300;2023-02-01T13:17:44;4.18;;;1.88;;
35917;SDS011;22011;59.912;30.300;2023-02-01T13:20:16;11.18;;;2.13;;
35917;SDS011;22011;59.912;30.300;2023-02-01T13:22:50;7.00;;;1.70;;
35917;SDS011;22011;59.912;30.300;2023-02-01T13:25:25;8.00;;;2.05;;
35917;SDS011;22011;59.912;30.300;2023-02-01T13:28:00;9.40;;;2.35;;
35917;SDS011;22011;59.912;30.300;2023-02-01T13:30:37;5.18;;;2.10;;
35917;SDS011;22011;59.912;30.300;2023-02-01T13:33:20;4.10;;;1.70;;
35917;SDS011;22011;59.912;30.300;2023-02-01T13:36:09;3.92;;;2.10;;
35917;SDS011;22011;59.912;30.300;2023-02-01T13:41:59;5.18;;;1.83;;
35917;SDS011;22011;59.912;30.300;2023-02-01T13:44:30;6.88;;;2.00;;
35917;SDS011;22011;59.912;30.300;2023-02-01T13:47:03;6.00;;;2.22;;
35917;SDS011;22011;59.912;30.300;2023-02-01T13:49:43;4.95;;;2.67;;
35917;SDS011;22011;59.912;30.300;2023-02-01T13:52:21;2.90;;;1.70;;
35917;SDS011;22011;59.912;30.300;2023-02-01T13:55:01;4.93;;;1.70;;
35917;SDS011;22011;59.912;30.300;2023-02-01T13:57:43;4.43;;;1.80;;
35917;SDS011;22011;59.912;30.300;2023-02-01T14:03:06;6.88;;;2.05;;
35917;SDS011;22011;59.912;30.300;2023-02-01T14:06:03;6.45;;;1.88;;
35917;SDS011;22011;59.912;30.300;2023-02-01T14:08:44;8.30;;;2.10;;
35917;SDS011;22011;59.912;30.300;2023-02-01T14:11:34;6.20;;;1.98;;
35917;SDS011;22011;59.912;30.300;2023-02-01T14:23:21;2.97;;;1.70;;
35917;SDS011;22011;59.912;30.300;2023-02-01T14:26:06;4.38;;;1.90;;
35917;SDS011;22011;59.912;30.300;2023-02-01T14:28:43;7.85;;;1.90;;
35917;SDS011;22011;59.912;30.300;2023-02-01T14:31:15;4.00;;;1.70;;
35917;SDS011;22011;59.912;30.300;2023-02-01T14:33:54;7.82;;;3.33;;
35917;SDS011;22011;59.912;30.300;2023-02-01T14:36:24;3.78;;;2.20;;
35917;SDS011;22011;59.912;30.300;2023-02-01T14:38:55;5.72;;;2.15;;
35917;SDS011;22011;59.912;30.300;2023-02-01T14:41:26;6.80;;;2.65;;
35917;SDS011;22011;59.912;30.300;2023-02-01T14:44:21;6.10;;;2.63;;
35917;SDS011;22011;59.912;30.300;2023-02-01T14:47:06;2.08;;;1.50;;
35917;SDS011;22011;59.912;30.300;2023-02-01T14:52:50;5.70;;;2.40;;
35917;SDS011;22011;59.912;30.300;2023-02-01T14:55:34;5.22;;;2.03;;
35917;SDS011;22011;59.912;30.300;2023-02-01T14:58:05;5.18;;;2.00;;
35917;SDS011;22011;59.912;30.300;2023-02-01T15:00:37;4.43;;;1.75;;
35917;SDS011;22011;59.912;30.300;2023-02-01T15:03:16;7.57;;;1.88;;
35917;SDS011;22011;59.912;30.300;2023-02-01T15:06:16;5.03;;;2.00;;
35917;SDS011;22011;59.912;30.300;2023-02-01T15:08:51;5.57;;;1.65;;
35917;SDS011;22011;59.912;30.300;2023-02-01T15:11:22;4.90;;;1.98;;
35917;SDS011;22011;59.912;30.300;2023-02-01T15:13:50;5.63;;;2.10;;
35917;SDS011;22011;59.912;30.300;2023-02-01T15:16:21;7.28;;;2.83;;
35917;SDS011;22011;59.912;30.300;2023-02-01T15:18:50;7.85;;;2.10;;
35917;SDS011;22011;59.912;30.300;2023-02-01T15:21:18;5.57;;;2.40;;
35917;SDS011;22011;59.912;30.300;2023-02-01T15:23:47;7.10;;;2.40;;
35917;SDS011;22011;59.912;30.300;2023-02-01T15:26:27;6.10;;;1.77;;
35917;SDS011;22011;59.912;30.300;2023-02-01T15:28:56;5.03;;;2.17;;
35917;SDS011;22011;59.912;30.300;2023-02-01T15:31:31;6.75;;;2.10;;
35917;SDS011;22011;59.912;30.300;2023-02-01T15:34:00;6.28;;;1.88;;
35917;SDS011;22011;59.912;30.300;2023-02-01T15:36:28;6.90;;;1.88;;
35917;SDS011;22011;59.912;30.300;2023-02-01T15:39:16;5.07;;;2.00;;
35917;SDS011;22011;59.912;30.300;2023-02-01T15:41:48;7.90;;;2.95;;